UAL3107 KLAX-KSMF
Flight info
| Callsign | UAL3107 |
|---|---|
| Flight time | 1h 1m |
| Altitude | 36000 |
| Route | LADYJ4 CSTRO NURAY SUUTR4 |
| Aircraft | A320/M-SDE3FGHIRWY/LB1 |
Departure
| Time | 2026-04-23 01:57 |
|---|---|
| Airport | Los Angeles International Airport (KLAX) |
Arrival
| Time | 2026-04-23 02:59 |
|---|---|
| Airport | Sacramento International Airport (KSMF) |
| Time | Latitude | Longitude | Altitude | Speed | Heading |
|---|---|---|---|---|---|
| 2026-04-23 01:22 | 33.94133 | -118.39765 | 93 ft | 0 kts | 83° |
| 2026-04-23 01:45 | 33.94129 | -118.39785 | 93 ft | 4 kts | 65° |
| 2026-04-23 01:45 | 33.94118 | -118.39813 | 92 ft | 4 kts | 84° |
| 2026-04-23 01:45 | 33.94123 | -118.39830 | 92 ft | 3 kts | 171° |
| 2026-04-23 01:46 | 33.94141 | -118.39833 | 93 ft | 1 kts | 173° |
| 2026-04-23 01:46 | 33.94142 | -118.39833 | 93 ft | 0 kts | 173° |
| 2026-04-23 01:52 | 33.94115 | -118.39829 | 91 ft | 11 kts | 173° |
| 2026-04-23 01:53 | 33.94029 | -118.39823 | 95 ft | 14 kts | 176° |
| 2026-04-23 01:53 | 33.93934 | -118.39792 | 94 ft | 15 kts | 144° |
| 2026-04-23 01:53 | 33.93913 | -118.39677 | 96 ft | 16 kts | 84° |
| 2026-04-23 01:53 | 33.93927 | -118.39537 | 95 ft | 20 kts | 82° |
| 2026-04-23 01:54 | 33.93945 | -118.39359 | 94 ft | 23 kts | 83° |
| 2026-04-23 01:54 | 33.93965 | -118.39161 | 93 ft | 25 kts | 83° |
| 2026-04-23 01:54 | 33.93984 | -118.38974 | 96 ft | 18 kts | 84° |
| 2026-04-23 01:54 | 33.93999 | -118.38819 | 95 ft | 20 kts | 83° |
| 2026-04-23 01:55 | 33.94015 | -118.38656 | 96 ft | 17 kts | 83° |
| 2026-04-23 01:55 | 33.94031 | -118.38508 | 95 ft | 17 kts | 83° |
| 2026-04-23 01:55 | 33.94040 | -118.38413 | 96 ft | 0 kts | 84° |
| 2026-04-23 01:55 | 33.94042 | -118.38395 | 96 ft | 8 kts | 83° |
| 2026-04-23 01:56 | 33.94043 | -118.38376 | 97 ft | 3 kts | 95° |
| 2026-04-23 01:56 | 33.93978 | -118.38338 | 98 ft | 16 kts | 200° |
| 2026-04-23 01:56 | 33.93929 | -118.38551 | 99 ft | 52 kts | 263° |
| 2026-04-23 01:56 | 33.93860 | -118.39236 | 96 ft | 109 kts | 263° |
| 2026-04-23 01:57 | 33.93751 | -118.40311 | 120 ft | 147 kts | 262° |
| 2026-04-23 01:57 | 33.93610 | -118.41642 | 311 ft | 172 kts | 262° |
| 2026-04-23 01:57 | 33.93441 | -118.43151 | 692 ft | 192 kts | 261° |
| 2026-04-23 01:57 | 33.93202 | -118.44840 | 1061 ft | 219 kts | 261° |
| 2026-04-23 01:58 | 33.92930 | -118.46713 | 1686 ft | 231 kts | 261° |
| 2026-04-23 01:58 | 33.92727 | -118.48679 | 2140 ft | 241 kts | 274° |
| 2026-04-23 01:58 | 33.92964 | -118.50677 | 2600 ft | 242 kts | 281° |
| 2026-04-23 01:58 | 33.93273 | -118.52696 | 3055 ft | 247 kts | 282° |
| 2026-04-23 01:59 | 33.93575 | -118.54755 | 3498 ft | 253 kts | 281° |
| 2026-04-23 01:59 | 33.93887 | -118.56867 | 3950 ft | 260 kts | 281° |
| 2026-04-23 01:59 | 33.94216 | -118.59019 | 4391 ft | 261 kts | 281° |
| 2026-04-23 01:59 | 33.94549 | -118.61182 | 4871 ft | 266 kts | 282° |
| 2026-04-23 02:00 | 33.94905 | -118.63377 | 5258 ft | 267 kts | 283° |
| 2026-04-23 02:00 | 33.95349 | -118.65542 | 5680 ft | 266 kts | 293° |
| 2026-04-23 02:00 | 33.96478 | -118.67232 | 6442 ft | 266 kts | 326° |
| 2026-04-23 02:00 | 33.98161 | -118.68121 | 7314 ft | 269 kts | 351° |
| 2026-04-23 02:01 | 34.00062 | -118.68034 | 7831 ft | 277 kts | 6° |
| 2026-04-23 02:01 | 34.01953 | -118.67553 | 7974 ft | 277 kts | 7° |
| 2026-04-23 02:01 | 34.03857 | -118.67243 | 8001 ft | 275 kts | 1° |
| 2026-04-23 02:01 | 34.05762 | -118.67109 | 8000 ft | 274 kts | 359° |
| 2026-04-23 02:02 | 34.07667 | -118.67021 | 7996 ft | 275 kts | 1° |
| 2026-04-23 02:02 | 34.09587 | -118.66687 | 8308 ft | 283 kts | 5° |
| 2026-04-23 02:02 | 34.11547 | -118.66273 | 9232 ft | 283 kts | 5° |
| 2026-04-23 02:02 | 34.13474 | -118.65840 | 10025 ft | 288 kts | 5° |
| 2026-04-23 02:03 | 34.15501 | -118.65377 | 10387 ft | 308 kts | 5° |
| 2026-04-23 02:03 | 34.17689 | -118.64874 | 10594 ft | 331 kts | 5° |
| 2026-04-23 02:03 | 34.19999 | -118.64335 | 11051 ft | 343 kts | 5° |
| 2026-04-23 02:03 | 34.22357 | -118.63778 | 11719 ft | 347 kts | 4° |
| 2026-04-23 02:04 | 34.24749 | -118.63537 | 12400 ft | 344 kts | 353° |
| 2026-04-23 02:04 | 34.27116 | -118.63852 | 13065 ft | 341 kts | 343° |
| 2026-04-23 02:04 | 34.29461 | -118.64389 | 13792 ft | 344 kts | 343° |
| 2026-04-23 02:04 | 34.31820 | -118.64935 | 14423 ft | 347 kts | 343° |
| 2026-04-23 02:05 | 34.34200 | -118.65485 | 15008 ft | 350 kts | 343° |
| 2026-04-23 02:05 | 34.36608 | -118.66038 | 15558 ft | 354 kts | 343° |
| 2026-04-23 02:05 | 34.39032 | -118.66589 | 16201 ft | 352 kts | 342° |
| 2026-04-23 02:05 | 34.41449 | -118.67138 | 16753 ft | 357 kts | 342° |
| 2026-04-23 02:06 | 34.43901 | -118.67694 | 17345 ft | 361 kts | 342° |
| 2026-04-23 02:06 | 34.46391 | -118.68212 | 17918 ft | 365 kts | 343° |
| 2026-04-23 02:06 | 34.48915 | -118.68703 | 18483 ft | 370 kts | 343° |
| 2026-04-23 02:06 | 34.51476 | -118.69186 | 19007 ft | 374 kts | 343° |
| 2026-04-23 02:07 | 34.54058 | -118.69671 | 19585 ft | 377 kts | 343° |
| 2026-04-23 02:07 | 34.56661 | -118.70164 | 20161 ft | 380 kts | 343° |
| 2026-04-23 02:07 | 34.59285 | -118.70665 | 20741 ft | 383 kts | 343° |
| 2026-04-23 02:07 | 34.61927 | -118.71179 | 21337 ft | 386 kts | 342° |
| 2026-04-23 02:08 | 34.63725 | -118.71531 | 21707 ft | 388 kts | 342° |
| 2026-04-23 02:08 | 34.66403 | -118.72059 | 22165 ft | 392 kts | 342° |
| 2026-04-23 02:08 | 34.69106 | -118.72594 | 22640 ft | 394 kts | 342° |
| 2026-04-23 02:08 | 34.71746 | -118.73382 | 23159 ft | 387 kts | 333° |
| 2026-04-23 02:09 | 34.74199 | -118.74672 | 23640 ft | 381 kts | 323° |
| 2026-04-23 02:09 | 34.76509 | -118.76257 | 24053 ft | 383 kts | 322° |
| 2026-04-23 02:09 | 34.78830 | -118.77855 | 24455 ft | 385 kts | 322° |
| 2026-04-23 02:09 | 34.81174 | -118.79465 | 24825 ft | 388 kts | 322° |
| 2026-04-23 02:10 | 34.83529 | -118.81087 | 25201 ft | 390 kts | 323° |
| 2026-04-23 02:10 | 34.85899 | -118.82716 | 25560 ft | 393 kts | 323° |
| 2026-04-23 02:10 | 34.88283 | -118.84352 | 25924 ft | 394 kts | 323° |
| 2026-04-23 02:10 | 34.90684 | -118.86000 | 26241 ft | 397 kts | 323° |
| 2026-04-23 02:11 | 34.93106 | -118.87666 | 26505 ft | 401 kts | 323° |
| 2026-04-23 02:11 | 34.95535 | -118.89336 | 26920 ft | 402 kts | 323° |
| 2026-04-23 02:11 | 34.97977 | -118.91018 | 27293 ft | 404 kts | 323° |
| 2026-04-23 02:11 | 35.00431 | -118.92712 | 27695 ft | 406 kts | 322° |
| 2026-04-23 02:12 | 35.02896 | -118.94418 | 28045 ft | 408 kts | 322° |
| 2026-04-23 02:12 | 35.05373 | -118.96131 | 28420 ft | 410 kts | 322° |
| 2026-04-23 02:12 | 35.07856 | -118.97848 | 28867 ft | 411 kts | 322° |
| 2026-04-23 02:12 | 35.10349 | -118.99573 | 29196 ft | 413 kts | 322° |
| 2026-04-23 02:13 | 35.12858 | -119.01309 | 29530 ft | 415 kts | 322° |
| 2026-04-23 02:13 | 35.15379 | -119.03054 | 29854 ft | 418 kts | 322° |
| 2026-04-23 02:13 | 35.17904 | -119.04802 | 30277 ft | 417 kts | 322° |
| 2026-04-23 02:13 | 35.20426 | -119.06548 | 30731 ft | 415 kts | 322° |
| 2026-04-23 02:14 | 35.22934 | -119.08287 | 31177 ft | 413 kts | 322° |
| 2026-04-23 02:14 | 35.25429 | -119.10017 | 31624 ft | 411 kts | 322° |
| 2026-04-23 02:14 | 35.27910 | -119.11742 | 32073 ft | 409 kts | 321° |
| 2026-04-23 02:14 | 35.30375 | -119.13457 | 32527 ft | 407 kts | 321° |
| 2026-04-23 02:15 | 35.35271 | -119.16862 | 33445 ft | 403 kts | 321° |
| 2026-04-23 02:15 | 35.37700 | -119.18557 | 33909 ft | 401 kts | 321° |
| 2026-04-23 02:15 | 35.40112 | -119.20241 | 34391 ft | 398 kts | 321° |
| 2026-04-23 02:16 | 35.42512 | -119.21918 | 34765 ft | 396 kts | 321° |
| 2026-04-23 02:16 | 35.44964 | -119.23499 | 35098 ft | 403 kts | 327° |
| 2026-04-23 02:16 | 35.47632 | -119.24675 | 35408 ft | 410 kts | 331° |
| 2026-04-23 02:16 | 35.50348 | -119.25756 | 35698 ft | 410 kts | 331° |
| 2026-04-23 02:17 | 35.53065 | -119.26841 | 35987 ft | 410 kts | 331° |
| 2026-04-23 02:17 | 35.55783 | -119.27931 | 36117 ft | 412 kts | 331° |
| 2026-04-23 02:17 | 35.58525 | -119.29035 | 36179 ft | 416 kts | 330° |
| 2026-04-23 02:18 | 35.64026 | -119.31247 | 36140 ft | 416 kts | 331° |
| 2026-04-23 02:18 | 35.69527 | -119.33451 | 36143 ft | 416 kts | 331° |
| 2026-04-23 02:19 | 35.75030 | -119.35660 | 36153 ft | 416 kts | 331° |
| 2026-04-23 02:19 | 35.80528 | -119.37884 | 36149 ft | 415 kts | 330° |
| 2026-04-23 02:20 | 35.86018 | -119.40106 | 36145 ft | 416 kts | 330° |
| 2026-04-23 02:20 | 35.91520 | -119.42335 | 36149 ft | 416 kts | 330° |
| 2026-04-23 02:21 | 35.97024 | -119.44563 | 36199 ft | 417 kts | 330° |
| 2026-04-23 02:21 | 36.02534 | -119.46794 | 36187 ft | 416 kts | 330° |
| 2026-04-23 02:22 | 36.08037 | -119.49033 | 36178 ft | 416 kts | 330° |
| 2026-04-23 02:22 | 36.13540 | -119.51271 | 36184 ft | 416 kts | 330° |
| 2026-04-23 02:23 | 36.19038 | -119.53509 | 36205 ft | 416 kts | 330° |
| 2026-04-23 02:23 | 36.24537 | -119.55752 | 36202 ft | 416 kts | 330° |
| 2026-04-23 02:24 | 36.30024 | -119.58000 | 36190 ft | 415 kts | 330° |
| 2026-04-23 02:24 | 36.35470 | -119.60231 | 36187 ft | 415 kts | 330° |
| 2026-04-23 02:25 | 36.40936 | -119.62468 | 36180 ft | 413 kts | 330° |
| 2026-04-23 02:25 | 36.46387 | -119.64713 | 36176 ft | 413 kts | 330° |
| 2026-04-23 02:26 | 36.51837 | -119.66966 | 36174 ft | 413 kts | 330° |
| 2026-04-23 02:26 | 36.57294 | -119.69218 | 36210 ft | 413 kts | 330° |
| 2026-04-23 02:26 | 36.59922 | -119.70546 | 36205 ft | 402 kts | 322° |
| 2026-04-23 02:27 | 36.62301 | -119.72282 | 36201 ft | 394 kts | 317° |
| 2026-04-23 02:27 | 36.66934 | -119.75941 | 36199 ft | 394 kts | 317° |
| 2026-04-23 02:28 | 36.71570 | -119.79594 | 36196 ft | 394 kts | 317° |
| 2026-04-23 02:28 | 36.76200 | -119.83253 | 36184 ft | 394 kts | 317° |
| 2026-04-23 02:29 | 36.80802 | -119.86894 | 36186 ft | 394 kts | 317° |
| 2026-04-23 02:29 | 36.85432 | -119.90565 | 36187 ft | 394 kts | 317° |
| 2026-04-23 02:30 | 36.90058 | -119.94247 | 36203 ft | 394 kts | 317° |
| 2026-04-23 02:30 | 36.94673 | -119.97923 | 36189 ft | 393 kts | 317° |
| 2026-04-23 02:31 | 36.99295 | -120.01590 | 36202 ft | 393 kts | 317° |
| 2026-04-23 02:31 | 37.01605 | -120.03429 | 36012 ft | 393 kts | 317° |
| 2026-04-23 02:31 | 37.03915 | -120.05268 | 35709 ft | 394 kts | 317° |
| 2026-04-23 02:31 | 37.06229 | -120.07109 | 35046 ft | 394 kts | 317° |
| 2026-04-23 02:32 | 37.08545 | -120.08954 | 34387 ft | 395 kts | 318° |
| 2026-04-23 02:32 | 37.10863 | -120.10809 | 33521 ft | 397 kts | 318° |
| 2026-04-23 02:32 | 37.13189 | -120.12673 | 32711 ft | 397 kts | 318° |
| 2026-04-23 02:32 | 37.15515 | -120.14541 | 31908 ft | 397 kts | 318° |
| 2026-04-23 02:33 | 37.17830 | -120.16396 | 31420 ft | 391 kts | 318° |
| 2026-04-23 02:33 | 37.20111 | -120.18220 | 30914 ft | 386 kts | 318° |
| 2026-04-23 02:33 | 37.22360 | -120.20024 | 30424 ft | 381 kts | 318° |
| 2026-04-23 02:33 | 37.24583 | -120.21808 | 29880 ft | 377 kts | 318° |
| 2026-04-23 02:34 | 37.26776 | -120.23566 | 29390 ft | 372 kts | 318° |
| 2026-04-23 02:34 | 37.28941 | -120.25300 | 28875 ft | 367 kts | 319° |
| 2026-04-23 02:34 | 37.31097 | -120.27001 | 28315 ft | 365 kts | 319° |
| 2026-04-23 02:34 | 37.33217 | -120.28650 | 27786 ft | 362 kts | 320° |
| 2026-04-23 02:35 | 37.35355 | -120.30303 | 27244 ft | 360 kts | 320° |
| 2026-04-23 02:35 | 37.37480 | -120.31949 | 26715 ft | 358 kts | 320° |
| 2026-04-23 02:35 | 37.39593 | -120.33595 | 26187 ft | 357 kts | 321° |
| 2026-04-23 02:35 | 37.41700 | -120.35241 | 25664 ft | 356 kts | 321° |
| 2026-04-23 02:36 | 37.43806 | -120.36885 | 25150 ft | 357 kts | 321° |
| 2026-04-23 02:36 | 37.45913 | -120.38533 | 24643 ft | 356 kts | 321° |
| 2026-04-23 02:36 | 37.47924 | -120.40318 | 24133 ft | 352 kts | 316° |
| 2026-04-23 02:36 | 37.49838 | -120.42239 | 23659 ft | 352 kts | 316° |
| 2026-04-23 02:37 | 37.51755 | -120.44158 | 23140 ft | 351 kts | 316° |
| 2026-04-23 02:37 | 37.53657 | -120.46065 | 22680 ft | 348 kts | 317° |
| 2026-04-23 02:37 | 37.55544 | -120.47962 | 22224 ft | 345 kts | 317° |
| 2026-04-23 02:37 | 37.57413 | -120.49842 | 21769 ft | 343 kts | 317° |
| 2026-04-23 02:38 | 37.59267 | -120.51711 | 21333 ft | 340 kts | 317° |
| 2026-04-23 02:38 | 37.61107 | -120.53557 | 20967 ft | 335 kts | 317° |
| 2026-04-23 02:38 | 37.62934 | -120.55384 | 20741 ft | 335 kts | 317° |
| 2026-04-23 02:38 | 37.64758 | -120.57210 | 20478 ft | 334 kts | 317° |
| 2026-04-23 02:39 | 37.66575 | -120.59027 | 20218 ft | 333 kts | 317° |
| 2026-04-23 02:39 | 37.68386 | -120.60838 | 19958 ft | 331 kts | 317° |
| 2026-04-23 02:39 | 37.70188 | -120.62646 | 19705 ft | 330 kts | 317° |
| 2026-04-23 02:39 | 37.71980 | -120.64448 | 19448 ft | 329 kts | 318° |
| 2026-04-23 02:40 | 37.73741 | -120.66219 | 19192 ft | 327 kts | 318° |
| 2026-04-23 02:40 | 37.75519 | -120.68006 | 18917 ft | 325 kts | 319° |
| 2026-04-23 02:40 | 37.77277 | -120.69774 | 18613 ft | 322 kts | 319° |
| 2026-04-23 02:40 | 37.79024 | -120.71532 | 18292 ft | 320 kts | 319° |
| 2026-04-23 02:41 | 37.80762 | -120.73287 | 18007 ft | 320 kts | 319° |
| 2026-04-23 02:41 | 37.82501 | -120.75042 | 17725 ft | 320 kts | 319° |
| 2026-04-23 02:41 | 37.84238 | -120.76795 | 17433 ft | 320 kts | 320° |
| 2026-04-23 02:41 | 37.85977 | -120.78552 | 17143 ft | 319 kts | 320° |
| 2026-04-23 02:42 | 37.87713 | -120.80309 | 16778 ft | 319 kts | 320° |
| 2026-04-23 02:42 | 37.89445 | -120.82066 | 16420 ft | 319 kts | 320° |
| 2026-04-23 02:42 | 37.91179 | -120.83830 | 15996 ft | 320 kts | 321° |
| 2026-04-23 02:42 | 37.92911 | -120.85596 | 15499 ft | 319 kts | 322° |
| 2026-04-23 02:43 | 37.94641 | -120.87364 | 15127 ft | 320 kts | 322° |
| 2026-04-23 02:43 | 37.96375 | -120.89134 | 14770 ft | 320 kts | 322° |
| 2026-04-23 02:43 | 37.98118 | -120.90905 | 14421 ft | 321 kts | 323° |
| 2026-04-23 02:43 | 37.99859 | -120.92673 | 14064 ft | 321 kts | 323° |
| 2026-04-23 02:44 | 38.01598 | -120.94447 | 13667 ft | 321 kts | 323° |
| 2026-04-23 02:44 | 38.03335 | -120.96221 | 13304 ft | 320 kts | 323° |
| 2026-04-23 02:44 | 38.05072 | -120.97993 | 12947 ft | 320 kts | 323° |
| 2026-04-23 02:44 | 38.06805 | -120.99765 | 12586 ft | 320 kts | 322° |
| 2026-04-23 02:45 | 38.08370 | -121.01767 | 12278 ft | 317 kts | 313° |
| 2026-04-23 02:45 | 38.09773 | -121.03850 | 12145 ft | 305 kts | 313° |
| 2026-04-23 02:45 | 38.11133 | -121.05858 | 12004 ft | 295 kts | 313° |
| 2026-04-23 02:45 | 38.12458 | -121.07813 | 11715 ft | 290 kts | 313° |
| 2026-04-23 02:46 | 38.13772 | -121.09747 | 11368 ft | 288 kts | 313° |
| 2026-04-23 02:46 | 38.15078 | -121.11673 | 11019 ft | 287 kts | 312° |
| 2026-04-23 02:46 | 38.16361 | -121.13566 | 10675 ft | 286 kts | 312° |
| 2026-04-23 02:46 | 38.17655 | -121.15479 | 10330 ft | 285 kts | 311° |
| 2026-04-23 02:47 | 38.18944 | -121.17383 | 9974 ft | 284 kts | 311° |
| 2026-04-23 02:47 | 38.20232 | -121.19278 | 9603 ft | 282 kts | 311° |
| 2026-04-23 02:47 | 38.21518 | -121.21171 | 9093 ft | 276 kts | 312° |
| 2026-04-23 02:47 | 38.22788 | -121.22914 | 8912 ft | 272 kts | 315° |
| 2026-04-23 02:48 | 38.24131 | -121.24626 | 8842 ft | 274 kts | 316° |
| 2026-04-23 02:48 | 38.25495 | -121.26320 | 8735 ft | 274 kts | 317° |
| 2026-04-23 02:48 | 38.26860 | -121.28010 | 8609 ft | 273 kts | 316° |
| 2026-04-23 02:48 | 38.28219 | -121.29694 | 8476 ft | 273 kts | 316° |
| 2026-04-23 02:49 | 38.29578 | -121.31377 | 8354 ft | 272 kts | 316° |
| 2026-04-23 02:49 | 38.30958 | -121.32985 | 8220 ft | 261 kts | 324° |
| 2026-04-23 02:49 | 38.32383 | -121.34266 | 8094 ft | 241 kts | 326° |
| 2026-04-23 02:49 | 38.33706 | -121.35448 | 7953 ft | 224 kts | 326° |
| 2026-04-23 02:50 | 38.34951 | -121.36560 | 7836 ft | 211 kts | 326° |
| 2026-04-23 02:50 | 38.36126 | -121.37607 | 7672 ft | 203 kts | 326° |
| 2026-04-23 02:50 | 38.37279 | -121.38634 | 7425 ft | 201 kts | 326° |
| 2026-04-23 02:50 | 38.38419 | -121.39648 | 7154 ft | 199 kts | 326° |
| 2026-04-23 02:51 | 38.39554 | -121.40658 | 6886 ft | 199 kts | 326° |
| 2026-04-23 02:51 | 38.40677 | -121.41659 | 6625 ft | 196 kts | 326° |
| 2026-04-23 02:51 | 38.41787 | -121.42649 | 6308 ft | 194 kts | 326° |
| 2026-04-23 02:51 | 38.42881 | -121.43626 | 6028 ft | 190 kts | 326° |
| 2026-04-23 02:52 | 38.43955 | -121.44583 | 5760 ft | 186 kts | 326° |
| 2026-04-23 02:52 | 38.45008 | -121.45522 | 5498 ft | 183 kts | 326° |
| 2026-04-23 02:52 | 38.46045 | -121.46447 | 5244 ft | 180 kts | 326° |
| 2026-04-23 02:52 | 38.47066 | -121.47360 | 4986 ft | 178 kts | 326° |
| 2026-04-23 02:53 | 38.48071 | -121.48262 | 4728 ft | 175 kts | 326° |
| 2026-04-23 02:53 | 38.49063 | -121.49152 | 4482 ft | 173 kts | 326° |
| 2026-04-23 02:53 | 38.50039 | -121.50023 | 4240 ft | 167 kts | 326° |
| 2026-04-23 02:53 | 38.50926 | -121.50817 | 4017 ft | 147 kts | 326° |
| 2026-04-23 02:54 | 38.51745 | -121.51548 | 3814 ft | 143 kts | 326° |
| 2026-04-23 02:54 | 38.52557 | -121.52274 | 3613 ft | 142 kts | 326° |
| 2026-04-23 02:54 | 38.53358 | -121.52990 | 3417 ft | 140 kts | 326° |
| 2026-04-23 02:54 | 38.54156 | -121.53705 | 3212 ft | 140 kts | 326° |
| 2026-04-23 02:55 | 38.54942 | -121.54409 | 3004 ft | 140 kts | 326° |
| 2026-04-23 02:55 | 38.55738 | -121.55119 | 2819 ft | 139 kts | 326° |
| 2026-04-23 02:55 | 38.56533 | -121.55829 | 2616 ft | 139 kts | 326° |
| 2026-04-23 02:55 | 38.57326 | -121.56539 | 2417 ft | 139 kts | 326° |
| 2026-04-23 02:56 | 38.58117 | -121.57250 | 2210 ft | 139 kts | 326° |
| 2026-04-23 02:56 | 38.58905 | -121.57955 | 2023 ft | 138 kts | 326° |
| 2026-04-23 02:56 | 38.59436 | -121.58431 | 1888 ft | 138 kts | 326° |
| 2026-04-23 02:56 | 38.60219 | -121.59134 | 1702 ft | 137 kts | 325° |
| 2026-04-23 02:57 | 38.61000 | -121.59833 | 1493 ft | 136 kts | 326° |
| 2026-04-23 02:57 | 38.61880 | -121.60246 | 1334 ft | 136 kts | 355° |
| 2026-04-23 02:57 | 38.62827 | -121.60241 | 1167 ft | 136 kts | 0° |
| 2026-04-23 02:57 | 38.63773 | -121.60224 | 979 ft | 136 kts | 360° |
| 2026-04-23 02:58 | 38.64717 | -121.60208 | 800 ft | 135 kts | 359° |
| 2026-04-23 02:58 | 38.65653 | -121.60193 | 625 ft | 134 kts | 0° |
| 2026-04-23 02:58 | 38.66573 | -121.60178 | 438 ft | 134 kts | 360° |
| 2026-04-23 02:58 | 38.67502 | -121.60160 | 258 ft | 134 kts | 1° |
| 2026-04-23 02:59 | 38.68435 | -121.60144 | 66 ft | 127 kts | 0° |
| 2026-04-23 02:59 | 38.69190 | -121.60133 | 28 ft | 70 kts | 0° |
| 2026-04-23 02:59 | 38.69452 | -121.60115 | 27 ft | 28 kts | 26° |
| 2026-04-23 02:59 | 38.69413 | -121.60028 | 28 ft | 16 kts | 160° |
| 2026-04-23 03:00 | 38.69290 | -121.59951 | 29 ft | 20 kts | 149° |
| 2026-04-23 03:00 | 38.69281 | -121.59875 | 29 ft | 14 kts | 9° |
| 2026-04-23 03:00 | 38.69421 | -121.59868 | 29 ft | 23 kts | 2° |
| 2026-04-23 03:00 | 38.69586 | -121.59865 | 29 ft | 25 kts | 358° |
| 2026-04-23 03:01 | 38.69692 | -121.59829 | 29 ft | 16 kts | 66° |
| 2026-04-23 03:01 | 38.69703 | -121.59677 | 29 ft | 19 kts | 90° |
| 2026-04-23 03:01 | 38.69701 | -121.59510 | 29 ft | 13 kts | 91° |
| 2026-04-23 03:01 | 38.69674 | -121.59419 | 29 ft | 12 kts | 161° |
| 2026-04-23 03:02 | 38.69625 | -121.59414 | 29 ft | 0 kts | 178° |